sensor_id;sensor_type;location;lat;lon;timestamp;temperature;humidity
17845;DHT22;9047;53.486;10.218;2023-11-19T00:00:48;5.60;99.90
17845;DHT22;9047;53.486;10.218;2023-11-19T00:03:16;5.60;99.90
17845;DHT22;9047;53.486;10.218;2023-11-19T00:05:49;5.60;99.90
17845;DHT22;9047;53.486;10.218;2023-11-19T00:08:16;5.70;99.90
17845;DHT22;9047;53.486;10.218;2023-11-19T00:10:43;5.70;99.90
17845;DHT22;9047;53.486;10.218;2023-11-19T00:13:11;5.70;99.90
17845;DHT22;9047;53.486;10.218;2023-11-19T00:15:39;5.70;99.90
17845;DHT22;9047;53.486;10.218;2023-11-19T00:18:06;5.70;99.90
17845;DHT22;9047;53.486;10.218;2023-11-19T00:20:33;5.70;99.90
17845;DHT22;9047;53.486;10.218;2023-11-19T00:23:00;5.70;99.90
17845;DHT22;9047;53.486;10.218;2023-11-19T00:25:27;5.60;99.90
17845;DHT22;9047;53.486;10.218;2023-11-19T00:27:54;5.70;99.90
17845;DHT22;9047;53.486;10.218;2023-11-19T00:30:25;5.70;99.90
17845;DHT22;9047;53.486;10.218;2023-11-19T00:32:53;5.70;99.90
17845;DHT22;9047;53.486;10.218;2023-11-19T00:35:20;5.70;99.90
17845;DHT22;9047;53.486;10.218;2023-11-19T00:37:46;5.70;99.90
17845;DHT22;9047;53.486;10.218;2023-11-19T00:40:14;5.70;99.90
17845;DHT22;9047;53.486;10.218;2023-11-19T00:42:43;5.70;99.90
17845;DHT22;9047;53.486;10.218;2023-11-19T00:45:10;5.70;99.90
17845;DHT22;9047;53.486;10.218;2023-11-19T00:47:38;5.70;99.90
17845;DHT22;9047;53.486;10.218;2023-11-19T00:50:07;5.70;99.90
17845;DHT22;9047;53.486;10.218;2023-11-19T00:52:35;5.70;99.90
17845;DHT22;9047;53.486;10.218;2023-11-19T00:55:03;5.80;99.90
17845;DHT22;9047;53.486;10.218;2023-11-19T00:57:29;5.80;99.90
17845;DHT22;9047;53.486;10.218;2023-11-19T00:59:58;5.80;99.90
17845;DHT22;9047;53.486;10.218;2023-11-19T01:02:25;5.80;99.90
17845;DHT22;9047;53.486;10.218;2023-11-19T01:04:53;5.80;99.90
17845;DHT22;9047;53.486;10.218;2023-11-19T01:07:22;5.80;99.90
17845;DHT22;9047;53.486;10.218;2023-11-19T01:09:49;5.80;99.90
17845;DHT22;9047;53.486;10.218;2023-11-19T01:12:17;5.80;99.90
17845;DHT22;9047;53.486;10.218;2023-11-19T01:14:43;5.80;99.90
17845;DHT22;9047;53.486;10.218;2023-11-19T01:17:10;5.80;99.90
17845;DHT22;9047;53.486;10.218;2023-11-19T01:19:37;5.80;99.90
17845;DHT22;9047;53.486;10.218;2023-11-19T01:22:04;5.80;99.90
17845;DHT22;9047;53.486;10.218;2023-11-19T01:24:32;5.80;99.90
17845;DHT22;9047;53.486;10.218;2023-11-19T01:26:59;5.80;99.90
17845;DHT22;9047;53.486;10.218;2023-11-19T01:29:26;5.80;99.90
17845;DHT22;9047;53.486;10.218;2023-11-19T01:31:53;5.80;99.90
17845;DHT22;9047;53.486;10.218;2023-11-19T01:34:19;5.80;99.90
17845;DHT22;9047;53.486;10.218;2023-11-19T01:36:46;5.80;99.90
17845;DHT22;9047;53.486;10.218;2023-11-19T01:39:14;5.80;99.90
17845;DHT22;9047;53.486;10.218;2023-11-19T01:41:43;5.80;99.90
17845;DHT22;9047;53.486;10.218;2023-11-19T01:44:09;5.90;99.90
17845;DHT22;9047;53.486;10.218;2023-11-19T01:46:38;5.80;99.90
17845;DHT22;9047;53.486;10.218;2023-11-19T01:49:07;5.80;99.90
17845;DHT22;9047;53.486;10.218;2023-11-19T01:51:35;5.80;99.90
17845;DHT22;9047;53.486;10.218;2023-11-19T01:54:02;5.80;99.90
17845;DHT22;9047;53.486;10.218;2023-11-19T01:56:29;5.80;99.90
17845;DHT22;9047;53.486;10.218;2023-11-19T01:58:58;5.80;99.90
17845;DHT22;9047;53.486;10.218;2023-11-19T02:01:26;5.90;99.90
17845;DHT22;9047;53.486;10.218;2023-11-19T02:03:53;5.90;99.90
17845;DHT22;9047;53.486;10.218;2023-11-19T02:06:20;5.80;99.90
17845;DHT22;9047;53.486;10.218;2023-11-19T02:08:46;5.80;99.90
17845;DHT22;9047;53.486;10.218;2023-11-19T02:11:13;5.80;99.90
17845;DHT22;9047;53.486;10.218;2023-11-19T02:13:40;5.80;99.90
17845;DHT22;9047;53.486;10.218;2023-11-19T02:16:10;5.80;99.90
17845;DHT22;9047;53.486;10.218;2023-11-19T02:18:37;5.80;99.90
17845;DHT22;9047;53.486;10.218;2023-11-19T02:21:04;5.80;99.90
17845;DHT22;9047;53.486;10.218;2023-11-19T02:23:32;5.80;99.90
17845;DHT22;9047;53.486;10.218;2023-11-19T02:26:03;5.90;99.90
17845;DHT22;9047;53.486;10.218;2023-11-19T02:28:35;5.80;99.90
17845;DHT22;9047;53.486;10.218;2023-11-19T02:31:03;5.90;99.90
17845;DHT22;9047;53.486;10.218;2023-11-19T02:33:30;5.90;99.90
17845;DHT22;9047;53.486;10.218;2023-11-19T02:35:57;5.90;99.90
17845;DHT22;9047;53.486;10.218;2023-11-19T02:38:23;5.90;99.90
17845;DHT22;9047;53.486;10.218;2023-11-19T02:40:51;5.90;99.90
17845;DHT22;9047;53.486;10.218;2023-11-19T02:43:17;5.90;99.90
17845;DHT22;9047;53.486;10.218;2023-11-19T02:45:46;5.90;99.90
17845;DHT22;9047;53.486;10.218;2023-11-19T02:48:12;5.90;99.90
17845;DHT22;9047;53.486;10.218;2023-11-19T02:50:41;5.90;99.90
17845;DHT22;9047;53.486;10.218;2023-11-19T02:53:08;5.90;99.90
17845;DHT22;9047;53.486;10.218;2023-11-19T02:55:34;5.90;99.90
17845;DHT22;9047;53.486;10.218;2023-11-19T02:58:04;5.90;99.90
17845;DHT22;9047;53.486;10.218;2023-11-19T03:00:46;6.00;99.90
17845;DHT22;9047;53.486;10.218;2023-11-19T03:03:20;6.00;99.90
17845;DHT22;9047;53.486;10.218;2023-11-19T03:05:48;6.00;99.90
17845;DHT22;9047;53.486;10.218;2023-11-19T03:08:15;6.00;99.90
17845;DHT22;9047;53.486;10.218;2023-11-19T03:10:42;6.00;99.90
17845;DHT22;9047;53.486;10.218;2023-11-19T03:13:12;6.00;99.90
17845;DHT22;9047;53.486;10.218;2023-11-19T03:15:39;6.00;99.90
17845;DHT22;9047;53.486;10.218;2023-11-19T03:18:08;6.00;99.90
17845;DHT22;9047;53.486;10.218;2023-11-19T03:20:34;6.00;99.90
17845;DHT22;9047;53.486;10.218;2023-11-19T03:23:01;6.00;99.90
17845;DHT22;9047;53.486;10.218;2023-11-19T03:25:28;6.00;99.90
17845;DHT22;9047;53.486;10.218;2023-11-19T03:27:59;6.00;99.90
17845;DHT22;9047;53.486;10.218;2023-11-19T03:30:26;6.00;99.90
17845;DHT22;9047;53.486;10.218;2023-11-19T03:32:53;6.10;99.90
17845;DHT22;9047;53.486;10.218;2023-11-19T03:35:21;6.10;99.90
17845;DHT22;9047;53.486;10.218;2023-11-19T03:37:48;6.10;99.90
17845;DHT22;9047;53.486;10.218;2023-11-19T03:40:15;6.10;99.90
17845;DHT22;9047;53.486;10.218;2023-11-19T03:42:42;6.10;99.90
17845;DHT22;9047;53.486;10.218;2023-11-19T03:45:09;6.10;99.90
17845;DHT22;9047;53.486;10.218;2023-11-19T03:47:36;6.10;99.90
17845;DHT22;9047;53.486;10.218;2023-11-19T03:50:05;6.10;99.90
17845;DHT22;9047;53.486;10.218;2023-11-19T03:52:33;6.10;99.90
17845;DHT22;9047;53.486;10.218;2023-11-19T03:55:00;6.20;99.90
17845;DHT22;9047;53.486;10.218;2023-11-19T03:57:27;6.20;99.90
17845;DHT22;9047;53.486;10.218;2023-11-19T03:59:54;6.20;99.90
17845;DHT22;9047;53.486;10.218;2023-11-19T04:02:21;6.20;99.90
17845;DHT22;9047;53.486;10.218;2023-11-19T04:04:48;6.20;99.90
17845;DHT22;9047;53.486;10.218;2023-11-19T04:07:14;6.30;99.90
17845;DHT22;9047;53.486;10.218;2023-11-19T04:09:43;6.30;99.90
17845;DHT22;9047;53.486;10.218;2023-11-19T04:12:09;6.30;99.90
17845;DHT22;9047;53.486;10.218;2023-11-19T04:14:36;6.30;99.90
17845;DHT22;9047;53.486;10.218;2023-11-19T04:17:03;6.30;99.90
17845;DHT22;9047;53.486;10.218;2023-11-19T04:19:30;6.40;99.90
17845;DHT22;9047;53.486;10.218;2023-11-19T04:21:59;6.40;99.90
17845;DHT22;9047;53.486;10.218;2023-11-19T04:24:25;6.40;99.90
17845;DHT22;9047;53.486;10.218;2023-11-19T04:26:54;6.40;99.90
17845;DHT22;9047;53.486;10.218;2023-11-19T04:29:20;6.40;99.90
17845;DHT22;9047;53.486;10.218;2023-11-19T04:31:47;6.50;99.90
17845;DHT22;9047;53.486;10.218;2023-11-19T04:34:14;6.50;99.90
17845;DHT22;9047;53.486;10.218;2023-11-19T04:36:41;6.50;99.90
17845;DHT22;9047;53.486;10.218;2023-11-19T04:39:09;6.50;99.90
17845;DHT22;9047;53.486;10.218;2023-11-19T04:41:45;6.50;99.90
17845;DHT22;9047;53.486;10.218;2023-11-19T04:44:13;6.60;99.90
17845;DHT22;9047;53.486;10.218;2023-11-19T04:46:41;6.60;99.90
17845;DHT22;9047;53.486;10.218;2023-11-19T04:49:09;6.60;99.90
17845;DHT22;9047;53.486;10.218;2023-11-19T04:51:38;6.60;99.90
17845;DHT22;9047;53.486;10.218;2023-11-19T04:54:06;6.60;99.90
17845;DHT22;9047;53.486;10.218;2023-11-19T04:56:34;6.60;99.90
17845;DHT22;9047;53.486;10.218;2023-11-19T04:59:01;6.60;99.90
17845;DHT22;9047;53.486;10.218;2023-11-19T05:01:29;6.60;99.90
17845;DHT22;9047;53.486;10.218;2023-11-19T05:03:56;6.70;99.90
17845;DHT22;9047;53.486;10.218;2023-11-19T05:06:26;6.70;99.90
17845;DHT22;9047;53.486;10.218;2023-11-19T05:08:53;6.70;99.90
17845;DHT22;9047;53.486;10.218;2023-11-19T05:11:20;6.80;99.90
17845;DHT22;9047;53.486;10.218;2023-11-19T05:13:47;6.80;99.90
17845;DHT22;9047;53.486;10.218;2023-11-19T05:16:13;6.80;99.90
17845;DHT22;9047;53.486;10.218;2023-11-19T05:18:42;6.80;99.90
17845;DHT22;9047;53.486;10.218;2023-11-19T05:21:08;6.80;99.90
17845;DHT22;9047;53.486;10.218;2023-11-19T05:23:35;6.90;99.90
17845;DHT22;9047;53.486;10.218;2023-11-19T05:26:02;6.90;99.90
17845;DHT22;9047;53.486;10.218;2023-11-19T05:28:29;6.90;99.90
17845;DHT22;9047;53.486;10.218;2023-11-19T05:30:56;7.00;99.90
17845;DHT22;9047;53.486;10.218;2023-11-19T05:33:23;7.00;99.90
17845;DHT22;9047;53.486;10.218;2023-11-19T05:35:51;7.00;99.90
17845;DHT22;9047;53.486;10.218;2023-11-19T05:38:18;7.10;99.90
17845;DHT22;9047;53.486;10.218;2023-11-19T05:40:44;7.10;99.90
17845;DHT22;9047;53.486;10.218;2023-11-19T05:43:13;7.20;99.90
17845;DHT22;9047;53.486;10.218;2023-11-19T05:45:40;7.20;99.90
17845;DHT22;9047;53.486;10.218;2023-11-19T05:48:07;7.20;99.90
17845;DHT22;9047;53.486;10.218;2023-11-19T05:50:35;7.20;99.90
17845;DHT22;9047;53.486;10.218;2023-11-19T05:53:03;7.30;99.90
17845;DHT22;9047;53.486;10.218;2023-11-19T05:55:31;7.30;99.90
17845;DHT22;9047;53.486;10.218;2023-11-19T05:57:58;7.30;99.90
17845;DHT22;9047;53.486;10.218;2023-11-19T06:00:25;7.40;99.90
17845;DHT22;9047;53.486;10.218;2023-11-19T06:02:52;7.40;99.90
17845;DHT22;9047;53.486;10.218;2023-11-19T06:05:19;7.40;99.90
17845;DHT22;9047;53.486;10.218;2023-11-19T06:07:45;7.40;99.90
17845;DHT22;9047;53.486;10.218;2023-11-19T06:10:14;7.50;99.90
17845;DHT22;9047;53.486;10.218;2023-11-19T06:12:42;7.50;99.90
17845;DHT22;9047;53.486;10.218;2023-11-19T06:15:09;7.60;99.90
17845;DHT22;9047;53.486;10.218;2023-11-19T06:17:36;7.60;99.90
17845;DHT22;9047;53.486;10.218;2023-11-19T06:20:05;7.60;99.90
17845;DHT22;9047;53.486;10.218;2023-11-19T06:22:33;7.70;99.90
17845;DHT22;9047;53.486;10.218;2023-11-19T06:25:00;7.70;99.90
17845;DHT22;9047;53.486;10.218;2023-11-19T06:27:33;7.80;99.90
17845;DHT22;9047;53.486;10.218;2023-11-19T06:30:00;7.90;99.90
17845;DHT22;9047;53.486;10.218;2023-11-19T06:32:27;7.90;99.90
17845;DHT22;9047;53.486;10.218;2023-11-19T06:34:54;8.00;99.90
17845;DHT22;9047;53.486;10.218;2023-11-19T06:37:22;8.10;99.90
17845;DHT22;9047;53.486;10.218;2023-11-19T06:39:49;8.10;99.90
17845;DHT22;9047;53.486;10.218;2023-11-19T06:42:15;8.20;99.90
17845;DHT22;9047;53.486;10.218;2023-11-19T06:44:44;8.30;99.90
17845;DHT22;9047;53.486;10.218;2023-11-19T06:47:10;8.40;99.90
17845;DHT22;9047;53.486;10.218;2023-11-19T06:49:37;8.50;99.90
17845;DHT22;9047;53.486;10.218;2023-11-19T06:52:04;8.60;99.90
17845;DHT22;9047;53.486;10.218;2023-11-19T06:54:31;8.70;99.90
17845;DHT22;9047;53.486;10.218;2023-11-19T06:56:58;8.90;99.90
17845;DHT22;9047;53.486;10.218;2023-11-19T06:59:25;9.10;99.90
17845;DHT22;9047;53.486;10.218;2023-11-19T07:01:53;9.20;99.90
17845;DHT22;9047;53.486;10.218;2023-11-19T07:04:21;9.40;99.90
17845;DHT22;9047;53.486;10.218;2023-11-19T07:06:47;9.60;99.90
17845;DHT22;9047;53.486;10.218;2023-11-19T07:09:14;9.70;99.90
17845;DHT22;9047;53.486;10.218;2023-11-19T07:11:42;9.90;99.90
17845;DHT22;9047;53.486;10.218;2023-11-19T07:14:09;10.10;99.90
17845;DHT22;9047;53.486;10.218;2023-11-19T07:16:37;10.20;99.90
17845;DHT22;9047;53.486;10.218;2023-11-19T07:19:05;10.30;99.90
17845;DHT22;9047;53.486;10.218;2023-11-19T07:21:32;10.40;99.90
17845;DHT22;9047;53.486;10.218;2023-11-19T07:23:59;10.40;99.90
17845;DHT22;9047;53.486;10.218;2023-11-19T07:26:26;10.50;99.90
17845;DHT22;9047;53.486;10.218;2023-11-19T07:28:53;10.60;99.90
17845;DHT22;9047;53.486;10.218;2023-11-19T07:31:21;10.60;99.90
17845;DHT22;9047;53.486;10.218;2023-11-19T07:33:49;10.70;99.90
17845;DHT22;9047;53.486;10.218;2023-11-19T07:36:17;10.70;99.90
17845;DHT22;9047;53.486;10.218;2023-11-19T07:38:45;10.80;99.90
17845;DHT22;9047;53.486;10.218;2023-11-19T07:41:13;10.70;99.90
17845;DHT22;9047;53.486;10.218;2023-11-19T07:43:42;10.80;99.90
17845;DHT22;9047;53.486;10.218;2023-11-19T07:46:13;10.80;99.90
17845;DHT22;9047;53.486;10.218;2023-11-19T07:48:40;10.90;99.90
17845;DHT22;9047;53.486;10.218;2023-11-19T07:51:07;10.90;99.90
17845;DHT22;9047;53.486;10.218;2023-11-19T07:53:35;10.90;99.90
17845;DHT22;9047;53.486;10.218;2023-11-19T07:56:04;10.90;99.90
17845;DHT22;9047;53.486;10.218;2023-11-19T07:58:31;10.90;99.90
17845;DHT22;9047;53.486;10.218;2023-11-19T08:00:58;10.90;99.90
17845;DHT22;9047;53.486;10.218;2023-11-19T08:03:25;11.00;99.90
17845;DHT22;9047;53.486;10.218;2023-11-19T08:05:54;11.10;99.90
17845;DHT22;9047;53.486;10.218;2023-11-19T08:08:21;11.20;99.90
17845;DHT22;9047;53.486;10.218;2023-11-19T08:10:49;11.20;99.90
17845;DHT22;9047;53.486;10.218;2023-11-19T08:13:17;11.30;99.90
17845;DHT22;9047;53.486;10.218;2023-11-19T08:15:43;11.30;99.90
17845;DHT22;9047;53.486;10.218;2023-11-19T08:18:11;11.30;99.90
17845;DHT22;9047;53.486;10.218;2023-11-19T08:20:38;11.30;99.90
17845;DHT22;9047;53.486;10.218;2023-11-19T08:23:05;11.30;99.90
17845;DHT22;9047;53.486;10.218;2023-11-19T08:25:33;11.30;99.90
17845;DHT22;9047;53.486;10.218;2023-11-19T08:28:01;11.30;99.90
17845;DHT22;9047;53.486;10.218;2023-11-19T08:30:28;11.30;99.90
17845;DHT22;9047;53.486;10.218;2023-11-19T08:32:55;11.30;99.90
17845;DHT22;9047;53.486;10.218;2023-11-19T08:35:24;11.30;99.90
17845;DHT22;9047;53.486;10.218;2023-11-19T08:37:50;11.30;99.90
17845;DHT22;9047;53.486;10.218;2023-11-19T08:40:18;11.30;99.90
17845;DHT22;9047;53.486;10.218;2023-11-19T08:42:45;11.40;99.90
17845;DHT22;9047;53.486;10.218;2023-11-19T08:45:13;11.40;99.90
17845;DHT22;9047;53.486;10.218;2023-11-19T08:47:40;11.40;99.90
17845;DHT22;9047;53.486;10.218;2023-11-19T08:50:07;11.40;99.90
17845;DHT22;9047;53.486;10.218;2023-11-19T08:52:34;11.40;99.90
17845;DHT22;9047;53.486;10.218;2023-11-19T08:55:01;11.40;99.90
17845;DHT22;9047;53.486;10.218;2023-11-19T08:57:28;11.40;99.90
17845;DHT22;9047;53.486;10.218;2023-11-19T08:59:55;11.40;99.90
17845;DHT22;9047;53.486;10.218;2023-11-19T09:02:23;11.40;99.90
17845;DHT22;9047;53.486;10.218;2023-11-19T09:04:50;11.40;99.90
17845;DHT22;9047;53.486;10.218;2023-11-19T09:07:17;11.50;99.90
17845;DHT22;9047;53.486;10.218;2023-11-19T09:09:43;11.60;99.90
17845;DHT22;9047;53.486;10.218;2023-11-19T09:12:11;11.60;99.90
17845;DHT22;9047;53.486;10.218;2023-11-19T09:14:39;11.70;99.90
17845;DHT22;9047;53.486;10.218;2023-11-19T09:17:07;11.70;99.90
17845;DHT22;9047;53.486;10.218;2023-11-19T09:19:36;11.80;99.90
17845;DHT22;9047;53.486;10.218;2023-11-19T09:22:03;11.90;99.90
17845;DHT22;9047;53.486;10.218;2023-11-19T09:24:30;11.90;99.90
17845;DHT22;9047;53.486;10.218;2023-11-19T09:26:57;12.00;99.90
17845;DHT22;9047;53.486;10.218;2023-11-19T09:29:23;12.00;99.90
17845;DHT22;9047;53.486;10.218;2023-11-19T09:31:50;12.10;99.90
17845;DHT22;9047;53.486;10.218;2023-11-19T09:34:17;12.20;99.90
17845;DHT22;9047;53.486;10.218;2023-11-19T09:36:45;12.20;99.90
17845;DHT22;9047;53.486;10.218;2023-11-19T09:39:12;12.30;99.90
17845;DHT22;9047;53.486;10.218;2023-11-19T09:41:40;12.30;99.90
17845;DHT22;9047;53.486;10.218;2023-11-19T09:44:08;12.40;99.90
17845;DHT22;9047;53.486;10.218;2023-11-19T09:46:35;12.50;99.90
17845;DHT22;9047;53.486;10.218;2023-11-19T09:49:03;12.50;99.90
17845;DHT22;9047;53.486;10.218;2023-11-19T09:51:33;12.50;99.90
17845;DHT22;9047;53.486;10.218;2023-11-19T09:54:01;12.60;99.90
17845;DHT22;9047;53.486;10.218;2023-11-19T09:56:29;12.60;99.90
17845;DHT22;9047;53.486;10.218;2023-11-19T09:58:56;12.50;99.90
17845;DHT22;9047;53.486;10.218;2023-11-19T10:01:22;12.50;99.90
17845;DHT22;9047;53.486;10.218;2023-11-19T10:03:50;12.40;99.90
17845;DHT22;9047;53.486;10.218;2023-11-19T10:06:20;12.40;99.90
17845;DHT22;9047;53.486;10.218;2023-11-19T10:08:47;12.30;99.90
17845;DHT22;9047;53.486;10.218;2023-11-19T10:11:16;12.30;99.90
17845;DHT22;9047;53.486;10.218;2023-11-19T10:13:44;12.20;99.90
17845;DHT22;9047;53.486;10.218;2023-11-19T10:16:13;12.20;99.90
17845;DHT22;9047;53.486;10.218;2023-11-19T10:18:44;12.10;99.90
17845;DHT22;9047;53.486;10.218;2023-11-19T10:21:12;12.10;99.90
17845;DHT22;9047;53.486;10.218;2023-11-19T10:23:49;12.10;99.90
17845;DHT22;9047;53.486;10.218;2023-11-19T10:26:19;12.20;99.90
17845;DHT22;9047;53.486;10.218;2023-11-19T10:28:47;12.20;99.90
17845;DHT22;9047;53.486;10.218;2023-11-19T10:31:14;12.30;99.90
17845;DHT22;9047;53.486;10.218;2023-11-19T10:33:41;12.30;99.90
17845;DHT22;9047;53.486;10.218;2023-11-19T10:36:12;12.30;99.90
17845;DHT22;9047;53.486;10.218;2023-11-19T10:38:39;12.30;99.90
17845;DHT22;9047;53.486;10.218;2023-11-19T10:41:07;12.30;99.90
17845;DHT22;9047;53.486;10.218;2023-11-19T10:43:44;12.30;99.90
17845;DHT22;9047;53.486;10.218;2023-11-19T10:46:12;12.30;99.90
17845;DHT22;9047;53.486;10.218;2023-11-19T10:48:39;12.20;99.90
17845;DHT22;9047;53.486;10.218;2023-11-19T10:51:07;12.20;99.90
17845;DHT22;9047;53.486;10.218;2023-11-19T10:53:41;12.20;99.90
17845;DHT22;9047;53.486;10.218;2023-11-19T10:56:11;12.30;99.90
17845;DHT22;9047;53.486;10.218;2023-11-19T10:58:45;12.30;99.90
17845;DHT22;9047;53.486;10.218;2023-11-19T11:01:16;12.40;99.90
17845;DHT22;9047;53.486;10.218;2023-11-19T11:03:45;12.40;99.90
17845;DHT22;9047;53.486;10.218;2023-11-19T11:06:13;12.40;99.90
17845;DHT22;9047;53.486;10.218;2023-11-19T11:08:40;12.40;99.90
17845;DHT22;9047;53.486;10.218;2023-11-19T11:11:08;12.40;99.90
17845;DHT22;9047;53.486;10.218;2023-11-19T11:13:38;12.30;99.90
17845;DHT22;9047;53.486;10.218;2023-11-19T11:16:09;12.20;99.90
17845;DHT22;9047;53.486;10.218;2023-11-19T11:18:36;12.20;99.90
17845;DHT22;9047;53.486;10.218;2023-11-19T11:21:06;12.20;99.90
17845;DHT22;9047;53.486;10.218;2023-11-19T11:26:53;12.00;99.90
17845;DHT22;9047;53.486;10.218;2023-11-19T11:29:41;11.90;99.90
17845;DHT22;9047;53.486;10.218;2023-11-19T11:32:20;11.90;99.90
17845;DHT22;9047;53.486;10.218;2023-11-19T11:34:58;11.90;99.90
17845;DHT22;9047;53.486;10.218;2023-11-19T11:37:32;11.90;99.90
17845;DHT22;9047;53.486;10.218;2023-11-19T11:40:01;11.80;99.90
17845;DHT22;9047;53.486;10.218;2023-11-19T11:42:32;11.80;99.90
17845;DHT22;9047;53.486;10.218;2023-11-19T11:44:59;11.80;99.90
17845;DHT22;9047;53.486;10.218;2023-11-19T11:48:10;11.90;99.90
17845;DHT22;9047;53.486;10.218;2023-11-19T11:50:52;11.90;99.90
17845;DHT22;9047;53.486;10.218;2023-11-19T11:53:21;12.00;99.90
17845;DHT22;9047;53.486;10.218;2023-11-19T11:55:57;12.10;99.90
17845;DHT22;9047;53.486;10.218;2023-11-19T11:58:35;12.10;99.90
17845;DHT22;9047;53.486;10.218;2023-11-19T12:01:04;12.20;99.90
17845;DHT22;9047;53.486;10.218;2023-11-19T12:03:37;12.30;99.90
17845;DHT22;9047;53.486;10.218;2023-11-19T12:06:05;12.40;99.90
17845;DHT22;9047;53.486;10.218;2023-11-19T12:08:35;12.50;99.90
17845;DHT22;9047;53.486;10.218;2023-11-19T12:11:02;12.60;99.90
17845;DHT22;9047;53.486;10.218;2023-11-19T12:13:53;12.80;99.90
17845;DHT22;9047;53.486;10.218;2023-11-19T12:16:22;12.80;99.90
17845;DHT22;9047;53.486;10.218;2023-11-19T12:18:50;12.70;99.90
17845;DHT22;9047;53.486;10.218;2023-11-19T12:21:30;12.70;99.90
17845;DHT22;9047;53.486;10.218;2023-11-19T12:23:59;12.60;99.90
17845;DHT22;9047;53.486;10.218;2023-11-19T12:26:37;12.50;99.90
17845;DHT22;9047;53.486;10.218;2023-11-19T12:29:05;12.50;99.90
17845;DHT22;9047;53.486;10.218;2023-11-19T12:31:34;12.50;99.90
17845;DHT22;9047;53.486;10.218;2023-11-19T12:34:09;12.50;99.90
17845;DHT22;9047;53.486;10.218;2023-11-19T12:36:38;12.60;99.90
17845;DHT22;9047;53.486;10.218;2023-11-19T12:39:05;12.70;99.90
17845;DHT22;9047;53.486;10.218;2023-11-19T12:41:32;12.80;99.90
17845;DHT22;9047;53.486;10.218;2023-11-19T12:44:15;12.80;99.90
17845;DHT22;9047;53.486;10.218;2023-11-19T12:46:41;12.90;99.90
17845;DHT22;9047;53.486;10.218;2023-11-19T12:49:11;13.00;99.90
17845;DHT22;9047;53.486;10.218;2023-11-19T12:51:38;13.20;99.90
17845;DHT22;9047;53.486;10.218;2023-11-19T12:54:05;13.40;99.90
17845;DHT22;9047;53.486;10.218;2023-11-19T12:56:31;13.50;99.90
17845;DHT22;9047;53.486;10.218;2023-11-19T12:59:10;13.70;99.90
17845;DHT22;9047;53.486;10.218;2023-11-19T13:01:37;13.70;99.90
17845;DHT22;9047;53.486;10.218;2023-11-19T13:04:17;13.60;99.90
17845;DHT22;9047;53.486;10.218;2023-11-19T13:06:45;13.50;99.90
17845;DHT22;9047;53.486;10.218;2023-11-19T13:09:21;13.50;99.90
17845;DHT22;9047;53.486;10.218;2023-11-19T13:11:48;13.60;99.90
17845;DHT22;9047;53.486;10.218;2023-11-19T13:14:15;13.60;99.90
17845;DHT22;9047;53.486;10.218;2023-11-19T13:16:43;13.60;99.90
17845;DHT22;9047;53.486;10.218;2023-11-19T13:19:11;13.60;99.90
17845;DHT22;9047;53.486;10.218;2023-11-19T13:21:39;13.50;99.90
17845;DHT22;9047;53.486;10.218;2023-11-19T13:24:06;13.40;99.90
17845;DHT22;9047;53.486;10.218;2023-11-19T13:26:32;13.40;99.90
17845;DHT22;9047;53.486;10.218;2023-11-19T13:29:00;13.30;99.90
17845;DHT22;9047;53.486;10.218;2023-11-19T13:31:27;13.20;99.90
17845;DHT22;9047;53.486;10.218;2023-11-19T13:33:54;13.20;99.90
17845;DHT22;9047;53.486;10.218;2023-11-19T13:36:22;13.10;99.90
17845;DHT22;9047;53.486;10.218;2023-11-19T13:38:50;13.00;99.90
17845;DHT22;9047;53.486;10.218;2023-11-19T13:41:17;13.00;99.90
17845;DHT22;9047;53.486;10.218;2023-11-19T13:43:44;13.00;99.90
17845;DHT22;9047;53.486;10.218;2023-11-19T13:46:11;13.00;99.90
17845;DHT22;9047;53.486;10.218;2023-11-19T13:48:37;12.90;99.90
17845;DHT22;9047;53.486;10.218;2023-11-19T13:51:05;12.90;99.90
17845;DHT22;9047;53.486;10.218;2023-11-19T13:53:32;12.80;99.90
17845;DHT22;9047;53.486;10.218;2023-11-19T13:56:00;12.80;99.90
17845;DHT22;9047;53.486;10.218;2023-11-19T13:58:27;12.70;99.90
17845;DHT22;9047;53.486;10.218;2023-11-19T14:00:54;12.70;99.90
17845;DHT22;9047;53.486;10.218;2023-11-19T14:03:20;12.70;99.90
17845;DHT22;9047;53.486;10.218;2023-11-19T14:05:47;12.80;99.90
17845;DHT22;9047;53.486;10.218;2023-11-19T14:08:17;12.80;99.90
17845;DHT22;9047;53.486;10.218;2023-11-19T14:10:44;12.90;99.90
17845;DHT22;9047;53.486;10.218;2023-11-19T14:13:12;12.80;99.90
17845;DHT22;9047;53.486;10.218;2023-11-19T14:15:41;12.80;99.90
17845;DHT22;9047;53.486;10.218;2023-11-19T14:18:08;12.70;99.90
17845;DHT22;9047;53.486;10.218;2023-11-19T14:20:34;12.70;99.90
17845;DHT22;9047;53.486;10.218;2023-11-19T14:23:03;12.70;99.90
17845;DHT22;9047;53.486;10.218;2023-11-19T14:25:30;12.50;99.90
17845;DHT22;9047;53.486;10.218;2023-11-19T14:27:57;12.40;99.90
17845;DHT22;9047;53.486;10.218;2023-11-19T14:30:25;12.40;99.90
17845;DHT22;9047;53.486;10.218;2023-11-19T14:32:52;12.40;99.90
17845;DHT22;9047;53.486;10.218;2023-11-19T14:35:19;12.30;99.90
17845;DHT22;9047;53.486;10.218;2023-11-19T14:37:46;12.30;99.90
17845;DHT22;9047;53.486;10.218;2023-11-19T14:40:13;12.20;99.90
17845;DHT22;9047;53.486;10.218;2023-11-19T14:42:40;12.10;99.90
17845;DHT22;9047;53.486;10.218;2023-11-19T14:45:07;12.00;99.90
17845;DHT22;9047;53.486;10.218;2023-11-19T14:47:38;11.90;99.90
17845;DHT22;9047;53.486;10.218;2023-11-19T14:50:06;11.90;99.90
17845;DHT22;9047;53.486;10.218;2023-11-19T14:52:35;11.80;99.90
17845;DHT22;9047;53.486;10.218;2023-11-19T14:55:02;11.80;99.90
17845;DHT22;9047;53.486;10.218;2023-11-19T14:57:29;11.80;99.90
17845;DHT22;9047;53.486;10.218;2023-11-19T14:59:56;11.80;99.90
17845;DHT22;9047;53.486;10.218;2023-11-19T15:02:23;11.80;99.90
17845;DHT22;9047;53.486;10.218;2023-11-19T15:04:50;11.70;99.90
17845;DHT22;9047;53.486;10.218;2023-11-19T15:07:17;11.80;99.90
17845;DHT22;9047;53.486;10.218;2023-11-19T15:09:44;11.70;99.90
17845;DHT22;9047;53.486;10.218;2023-11-19T15:12:11;11.70;99.90
17845;DHT22;9047;53.486;10.218;2023-11-19T15:14:38;11.70;99.90
17845;DHT22;9047;53.486;10.218;2023-11-19T15:17:05;11.70;99.90
17845;DHT22;9047;53.486;10.218;2023-11-19T15:19:33;11.70;99.90
17845;DHT22;9047;53.486;10.218;2023-11-19T15:22:03;11.60;99.90
17845;DHT22;9047;53.486;10.218;2023-11-19T15:24:30;11.60;99.90
17845;DHT22;9047;53.486;10.218;2023-11-19T15:27:12;11.60;99.90
17845;DHT22;9047;53.486;10.218;2023-11-19T15:29:40;11.60;99.90
17845;DHT22;9047;53.486;10.218;2023-11-19T15:32:07;11.60;99.90
17845;DHT22;9047;53.486;10.218;2023-11-19T15:34:33;11.60;99.90
17845;DHT22;9047;53.486;10.218;2023-11-19T15:37:04;11.50;99.90
17845;DHT22;9047;53.486;10.218;2023-11-19T15:39:33;11.50;99.90
17845;DHT22;9047;53.486;10.218;2023-11-19T15:42:06;11.50;99.90
17845;DHT22;9047;53.486;10.218;2023-11-19T15:44:36;11.50;99.90
17845;DHT22;9047;53.486;10.218;2023-11-19T15:47:03;11.50;99.90